< < Back
Terminal Aerodrome Forecast


Current Version              Previous Versions:   1  2  3  4  5  6  7  8  9  

Terminal Aerodrome Forecast

992
FTUS42 KTAE 280541
TAFVLD
TAF
KVLD 280541Z 2806/2906 05004KT P6SM SCT250
     FM281600 08009KT P6SM VCTS BKN050CB
     FM282300 07003KT P6SM SCT250=



Latest METAR

681
SAUS70 KWBC 290200 RRA
MTRVLD
METAR KVLD 290153Z AUTO 00000KT 10SM CLR 27/24 A3003 RMK AO2 SLP175
T02720244


USA.gov is the U.S. government's official web portal to all federal, state and local government web resources and services.